Aérodrome :
LOGIN :

S'inscrire | Disclaimer

   EN    FR    IT 

 










Légende :    VFR   VFR Marginal   IFR   IFR Intensif   IFR Très Intensif
Visi : 
Plafond : 
>= 8 km
>= 3000ft
5 à 8 km
1000 à 3000 ft
1500m à 5 km
500 à 1000 ft
800 à 1500m
200 à 500 ft
< 800m
< 200 ft
Symboles :   Orages  Brouillard  Fortes neiges  Fortes précipitations  Vent > 20 kt
SIGMETs :   Divers  Orages  Givrage  Turbulence  Onde Orograph.  Cendres Volcan.






- Altitude de l'aérodrome : 289 ft


LFYR - Romorantin Pruniers

DERNIER METAR :
  • 201130Z AUTO 08005KT 040V110 CAVOK 07/02 Q1010 NOSIG

METARs EXPIRÉS :
  • 201100Z AUTO 12004KT 060V170 CAVOK 07/03 Q1011 NOSIG
  • 201030Z AUTO 12007KT CAVOK 05/02 Q1011 NOSIG
  • 201000Z AUTO 12006KT 090V150 CAVOK 05/02 Q1012 NOSIG
  • 200930Z AUTO 11005KT 080V140 CAVOK 04/01 Q1012 NOSIG
  • 200900Z AUTO VRB03KT CAVOK 02/01 Q1012 NOSIG

Prévision TAF périmée.



MET'MAP, la Météo Aéronautique d'un coup d'oeil ! - Copyright ORBIFLY Décembre 2007 - Disclaimer

ORBIFLY MET'MAP TEAM :

Programmation & Développement : Alexandra Zaïnal
Conception & Développement : Baudouin d'Aumeries
Co-Programmation & Développement : Marc-Olivier Méhu
Soutien technique & logistique : Manuel Goepfert

Contact : metmap@orbifly.com




SOURCES & CREDITS :

   NOAA